sensor_id;sensor_type;location;lat;lon;timestamp;pressure;altitude;pressure_sealevel;temperature;humidity
42001;BME280;27689;48.390;10.856;2023-06-24T00:02:05;97004.84;;;17.18;85.27
42001;BME280;27689;48.390;10.856;2023-06-24T00:04:50;97006.81;;;17.16;85.48
42001;BME280;27689;48.390;10.856;2023-06-24T00:07:35;97001.53;;;17.16;84.59
42001;BME280;27689;48.390;10.856;2023-06-24T00:10:27;97009.47;;;17.16;84.53
42001;BME280;27689;48.390;10.856;2023-06-24T00:13:11;97006.66;;;17.09;85.20
42001;BME280;27689;48.390;10.856;2023-06-24T00:15:55;96992.25;;;17.12;85.01
42001;BME280;27689;48.390;10.856;2023-06-24T00:18:39;96991.59;;;17.02;85.58
42001;BME280;27689;48.390;10.856;2023-06-24T00:21:25;96992.09;;;17.05;85.52
42001;BME280;27689;48.390;10.856;2023-06-24T00:24:17;96996.41;;;17.06;85.73
42001;BME280;27689;48.390;10.856;2023-06-24T00:27:01;97010.44;;;17.07;85.71
42001;BME280;27689;48.390;10.856;2023-06-24T00:29:45;97008.63;;;17.07;85.52
42001;BME280;27689;48.390;10.856;2023-06-24T00:32:29;97009.97;;;17.03;85.63
42001;BME280;27689;48.390;10.856;2023-06-24T00:35:12;97008.31;;;17.02;85.74
42001;BME280;27689;48.390;10.856;2023-06-24T00:37:57;97005.50;;;17.04;85.71
42001;BME280;27689;48.390;10.856;2023-06-24T00:40:41;97007.00;;;17.06;85.44
42001;BME280;27689;48.390;10.856;2023-06-24T00:43:25;97007.81;;;17.07;86.19
42001;BME280;27689;48.390;10.856;2023-06-24T00:46:09;96997.88;;;17.01;85.76
42001;BME280;27689;48.390;10.856;2023-06-24T00:48:57;97004.66;;;16.95;85.64
42001;BME280;27689;48.390;10.856;2023-06-24T00:51:41;97008.13;;;16.96;85.88
42001;BME280;27689;48.390;10.856;2023-06-24T00:54:33;97005.19;;;16.90;85.92
42001;BME280;27689;48.390;10.856;2023-06-24T00:57:20;97004.50;;;16.97;85.91
42001;BME280;27689;48.390;10.856;2023-06-24T01:00:08;97012.44;;;16.97;86.51
42001;BME280;27689;48.390;10.856;2023-06-24T01:03:03;97011.63;;;16.88;86.29
42001;BME280;27689;48.390;10.856;2023-06-24T01:05:46;97010.94;;;16.94;86.07
42001;BME280;27689;48.390;10.856;2023-06-24T01:08:30;97012.28;;;16.98;85.60
42001;BME280;27689;48.390;10.856;2023-06-24T01:11:15;97006.16;;;16.98;86.05
42001;BME280;27689;48.390;10.856;2023-06-24T01:13:58;97000.03;;;16.97;85.60
42001;BME280;27689;48.390;10.856;2023-06-24T01:20:05;96998.69;;;16.93;86.89
42001;BME280;27689;48.390;10.856;2023-06-24T01:32:48;96984.81;;;16.91;84.65
42001;BME280;27689;48.390;10.856;2023-06-24T01:35:35;96979.69;;;16.89;85.12
42001;BME280;27689;48.390;10.856;2023-06-24T01:38:28;96983.81;;;16.92;85.39
42001;BME280;27689;48.390;10.856;2023-06-24T01:41:15;96990.13;;;16.91;84.56
42001;BME280;27689;48.390;10.856;2023-06-24T01:44:03;96980.19;;;16.85;85.07
42001;BME280;27689;48.390;10.856;2023-06-24T01:46:48;96981.16;;;16.84;85.46
42001;BME280;27689;48.390;10.856;2023-06-24T01:49:38;96982.97;;;16.83;86.14
42001;BME280;27689;48.390;10.856;2023-06-24T01:52:26;96976.69;;;16.84;85.93
42001;BME280;27689;48.390;10.856;2023-06-24T01:55:16;96973.06;;;16.85;85.61
42001;BME280;27689;48.390;10.856;2023-06-24T01:58:02;96970.06;;;16.80;86.05
42001;BME280;27689;48.390;10.856;2023-06-24T02:00:49;96966.94;;;16.77;86.34
42001;BME280;27689;48.390;10.856;2023-06-24T02:03:35;96967.13;;;16.75;86.27
42001;BME280;27689;48.390;10.856;2023-06-24T02:06:20;96951.06;;;16.77;86.12
42001;BME280;27689;48.390;10.856;2023-06-24T02:09:07;96960.47;;;16.71;87.40
42001;BME280;27689;48.390;10.856;2023-06-24T02:11:53;96963.28;;;16.70;87.30
42001;BME280;27689;48.390;10.856;2023-06-24T02:14:38;96967.91;;;16.68;87.22
42001;BME280;27689;48.390;10.856;2023-06-24T02:17:26;96961.97;;;16.66;87.80
42001;BME280;27689;48.390;10.856;2023-06-24T02:20:14;96956.00;;;16.64;87.32
42001;BME280;27689;48.390;10.856;2023-06-24T02:23:00;96958.50;;;16.73;86.61
42001;BME280;27689;48.390;10.856;2023-06-24T02:25:46;96954.19;;;16.64;87.32
42001;BME280;27689;48.390;10.856;2023-06-24T02:28:32;96961.63;;;16.69;87.26
42001;BME280;27689;48.390;10.856;2023-06-24T02:31:19;96966.25;;;16.67;87.42
42001;BME280;27689;48.390;10.856;2023-06-24T02:34:03;96964.44;;;16.67;87.57
42001;BME280;27689;48.390;10.856;2023-06-24T02:36:47;96956.66;;;16.66;87.72
42001;BME280;27689;48.390;10.856;2023-06-24T02:39:31;96964.44;;;16.67;87.34
42001;BME280;27689;48.390;10.856;2023-06-24T02:42:15;96965.91;;;16.62;88.11
42001;BME280;27689;48.390;10.856;2023-06-24T02:45:00;96966.06;;;16.60;87.99
42001;BME280;27689;48.390;10.856;2023-06-24T02:47:45;96967.22;;;16.57;87.90
42001;BME280;27689;48.390;10.856;2023-06-24T02:50:31;96960.28;;;16.56;87.91
42001;BME280;27689;48.390;10.856;2023-06-24T02:53:16;96960.94;;;16.58;87.28
42001;BME280;27689;48.390;10.856;2023-06-24T02:56:01;96970.34;;;16.53;87.25
42001;BME280;27689;48.390;10.856;2023-06-24T02:58:47;96964.06;;;16.54;88.03
42001;BME280;27689;48.390;10.856;2023-06-24T03:01:31;96977.97;;;16.56;88.03
42001;BME280;27689;48.390;10.856;2023-06-24T03:04:22;96978.78;;;16.56;88.76
42001;BME280;27689;48.390;10.856;2023-06-24T03:07:07;96989.69;;;16.53;88.44
42001;BME280;27689;48.390;10.856;2023-06-24T03:09:54;96981.91;;;16.52;88.43
42001;BME280;27689;48.390;10.856;2023-06-24T03:12:38;96983.56;;;16.53;89.26
42001;BME280;27689;48.390;10.856;2023-06-24T03:15:22;96988.53;;;16.56;88.82
42001;BME280;27689;48.390;10.856;2023-06-24T03:18:06;96991.03;;;16.57;88.99
42001;BME280;27689;48.390;10.856;2023-06-24T03:20:50;96999.13;;;16.56;88.23
42001;BME280;27689;48.390;10.856;2023-06-24T03:23:36;97000.28;;;16.45;88.99
42001;BME280;27689;48.390;10.856;2023-06-24T03:26:20;96997.47;;;16.47;88.94
42001;BME280;27689;48.390;10.856;2023-06-24T03:29:04;97002.25;;;16.51;88.39
42001;BME280;27689;48.390;10.856;2023-06-24T03:31:48;97009.88;;;16.54;88.58
42001;BME280;27689;48.390;10.856;2023-06-24T03:34:32;97010.69;;;16.55;88.00
42001;BME280;27689;48.390;10.856;2023-06-24T03:37:16;97006.88;;;16.49;87.75
42001;BME280;27689;48.390;10.856;2023-06-24T03:39:59;97010.34;;;16.50;87.29
42001;BME280;27689;48.390;10.856;2023-06-24T03:42:43;97006.72;;;16.51;87.61
42001;BME280;27689;48.390;10.856;2023-06-24T03:45:27;97001.09;;;16.46;87.85
42001;BME280;27689;48.390;10.856;2023-06-24T03:48:12;97008.53;;;16.42;87.65
42001;BME280;27689;48.390;10.856;2023-06-24T03:50:56;97006.66;;;16.35;88.16
42001;BME280;27689;48.390;10.856;2023-06-24T03:53:39;97014.75;;;16.33;88.21
42001;BME280;27689;48.390;10.856;2023-06-24T03:56:24;97018.56;;;16.31;89.53
42001;BME280;27689;48.390;10.856;2023-06-24T03:59:07;97020.88;;;16.34;89.09
42001;BME280;27689;48.390;10.856;2023-06-24T04:01:52;97030.31;;;16.36;89.13
42001;BME280;27689;48.390;10.856;2023-06-24T04:04:36;97021.69;;;16.34;90.06
42001;BME280;27689;48.390;10.856;2023-06-24T04:07:21;97022.03;;;16.31;90.25
42001;BME280;27689;48.390;10.856;2023-06-24T04:10:10;97024.03;;;16.29;91.16
42001;BME280;27689;48.390;10.856;2023-06-24T04:12:55;97014.22;;;16.21;90.99
42001;BME280;27689;48.390;10.856;2023-06-24T04:15:38;97018.66;;;16.13;91.48
42001;BME280;27689;48.390;10.856;2023-06-24T04:18:23;97028.25;;;16.14;90.44
42001;BME280;27689;48.390;10.856;2023-06-24T04:21:07;97023.13;;;16.20;90.41
42001;BME280;27689;48.390;10.856;2023-06-24T04:23:51;97026.13;;;16.17;90.24
42001;BME280;27689;48.390;10.856;2023-06-24T04:26:35;97035.03;;;16.16;89.91
42001;BME280;27689;48.390;10.856;2023-06-24T04:29:19;97021.47;;;16.11;89.49
42001;BME280;27689;48.390;10.856;2023-06-24T04:32:03;97033.66;;;16.04;90.69
42001;BME280;27689;48.390;10.856;2023-06-24T04:34:47;97035.31;;;16.05;90.72
42001;BME280;27689;48.390;10.856;2023-06-24T04:37:31;97033.34;;;16.07;90.78
42001;BME280;27689;48.390;10.856;2023-06-24T04:40:17;97043.38;;;16.04;90.84
42001;BME280;27689;48.390;10.856;2023-06-24T04:43:01;97043.88;;;15.99;91.91
42001;BME280;27689;48.390;10.856;2023-06-24T04:45:45;97039.44;;;16.00;90.93
42001;BME280;27689;48.390;10.856;2023-06-24T04:48:30;97042.75;;;16.02;91.31
42001;BME280;27689;48.390;10.856;2023-06-24T04:51:14;97034.63;;;16.03;91.03
42001;BME280;27689;48.390;10.856;2023-06-24T04:53:58;97037.75;;;15.99;92.52
42001;BME280;27689;48.390;10.856;2023-06-24T04:56:43;97033.66;;;16.04;91.72
42001;BME280;27689;48.390;10.856;2023-06-24T04:59:28;97039.81;;;16.13;91.59
42001;BME280;27689;48.390;10.856;2023-06-24T05:02:12;97035.34;;;16.13;90.97
42001;BME280;27689;48.390;10.856;2023-06-24T05:04:56;97036.34;;;16.20;90.78
42001;BME280;27689;48.390;10.856;2023-06-24T05:07:40;97039.66;;;16.14;92.06
42001;BME280;27689;48.390;10.856;2023-06-24T05:10:24;97048.59;;;16.21;91.81
42001;BME280;27689;48.390;10.856;2023-06-24T05:13:08;97046.94;;;16.20;91.13
42001;BME280;27689;48.390;10.856;2023-06-24T05:15:52;97044.66;;;16.34;91.18
42001;BME280;27689;48.390;10.856;2023-06-24T05:18:35;97043.88;;;16.41;90.04
42001;BME280;27689;48.390;10.856;2023-06-24T05:21:19;97048.53;;;16.47;89.20
42001;BME280;27689;48.390;10.856;2023-06-24T05:24:04;97057.28;;;16.48;89.14
42001;BME280;27689;48.390;10.856;2023-06-24T05:26:49;97059.09;;;16.47;89.48
42001;BME280;27689;48.390;10.856;2023-06-24T05:29:33;97067.03;;;16.39;89.73
42001;BME280;27689;48.390;10.856;2023-06-24T05:32:17;97060.59;;;16.42;89.69
42001;BME280;27689;48.390;10.856;2023-06-24T05:35:04;97058.16;;;16.56;88.61
42001;BME280;27689;48.390;10.856;2023-06-24T05:37:48;97065.16;;;16.66;88.73
42001;BME280;27689;48.390;10.856;2023-06-24T05:40:32;97056.75;;;16.70;89.03
42001;BME280;27689;48.390;10.856;2023-06-24T05:43:16;97060.56;;;16.84;87.96
42001;BME280;27689;48.390;10.856;2023-06-24T05:46:00;97064.22;;;16.83;88.03
42001;BME280;27689;48.390;10.856;2023-06-24T05:48:44;97065.22;;;16.90;87.42
42001;BME280;27689;48.390;10.856;2023-06-24T05:51:28;97067.38;;;16.95;88.12
42001;BME280;27689;48.390;10.856;2023-06-24T05:54:12;97066.56;;;17.02;87.02
42001;BME280;27689;48.390;10.856;2023-06-24T05:56:56;97071.53;;;17.05;86.83
42001;BME280;27689;48.390;10.856;2023-06-24T05:59:40;97066.72;;;17.09;87.13
42001;BME280;27689;48.390;10.856;2023-06-24T06:02:25;97073.34;;;17.13;86.34
42001;BME280;27689;48.390;10.856;2023-06-24T06:05:09;97063.78;;;17.20;86.02
42001;BME280;27689;48.390;10.856;2023-06-24T06:07:53;97067.41;;;17.27;86.01
42001;BME280;27689;48.390;10.856;2023-06-24T06:10:37;97068.25;;;17.36;85.13
42001;BME280;27689;48.390;10.856;2023-06-24T06:13:21;97066.59;;;17.35;84.21
42001;BME280;27689;48.390;10.856;2023-06-24T06:16:05;97067.41;;;17.43;84.38
42001;BME280;27689;48.390;10.856;2023-06-24T06:18:49;97066.91;;;17.56;83.36
42001;BME280;27689;48.390;10.856;2023-06-24T06:21:33;97062.28;;;17.66;81.32
42001;BME280;27689;48.390;10.856;2023-06-24T06:24:17;97064.59;;;17.69;81.69
42001;BME280;27689;48.390;10.856;2023-06-24T06:27:01;97072.06;;;17.74;81.51
42001;BME280;27689;48.390;10.856;2023-06-24T06:29:45;97077.34;;;17.82;81.17
42001;BME280;27689;48.390;10.856;2023-06-24T06:32:29;97074.84;;;17.88;81.90
42001;BME280;27689;48.390;10.856;2023-06-24T06:35:13;97060.22;;;18.01;80.75
42001;BME280;27689;48.390;10.856;2023-06-24T06:37:58;97071.84;;;18.08;81.93
42001;BME280;27689;48.390;10.856;2023-06-24T06:40:42;97072.44;;;18.18;79.67
42001;BME280;27689;48.390;10.856;2023-06-24T06:43:26;97056.22;;;18.13;80.65
42001;BME280;27689;48.390;10.856;2023-06-24T06:46:10;97064.66;;;18.24;79.33
42001;BME280;27689;48.390;10.856;2023-06-24T06:48:54;97057.31;;;18.35;78.49
42001;BME280;27689;48.390;10.856;2023-06-24T06:51:38;97052.63;;;18.45;78.07
42001;BME280;27689;48.390;10.856;2023-06-24T06:54:22;97054.25;;;18.54;77.55
42001;BME280;27689;48.390;10.856;2023-06-24T06:57:06;97052.22;;;18.64;75.85
42001;BME280;27689;48.390;10.856;2023-06-24T06:59:50;97051.97;;;18.82;76.37
42001;BME280;27689;48.390;10.856;2023-06-24T07:02:35;97044.41;;;18.93;74.39
42001;BME280;27689;48.390;10.856;2023-06-24T07:05:19;97049.31;;;19.05;71.79
42001;BME280;27689;48.390;10.856;2023-06-24T07:08:05;97046.50;;;19.06;69.26
42001;BME280;27689;48.390;10.856;2023-06-24T07:10:49;97046.72;;;19.19;67.94
42001;BME280;27689;48.390;10.856;2023-06-24T07:13:33;97044.84;;;19.28;69.09
42001;BME280;27689;48.390;10.856;2023-06-24T07:16:17;97053.81;;;19.50;66.79
42001;BME280;27689;48.390;10.856;2023-06-24T07:19:01;97063.56;;;19.57;66.73
42001;BME280;27689;48.390;10.856;2023-06-24T07:21:45;97057.34;;;19.65;65.63
42001;BME280;27689;48.390;10.856;2023-06-24T07:24:29;97055.63;;;19.72;68.19
42001;BME280;27689;48.390;10.856;2023-06-24T07:27:13;97054.81;;;19.86;66.94
42001;BME280;27689;48.390;10.856;2023-06-24T07:29:57;97056.38;;;19.95;65.37
42001;BME280;27689;48.390;10.856;2023-06-24T07:32:41;97061.06;;;20.08;64.13
42001;BME280;27689;48.390;10.856;2023-06-24T07:35:25;97051.88;;;20.11;64.48
42001;BME280;27689;48.390;10.856;2023-06-24T07:38:09;97061.88;;;20.23;64.93
42001;BME280;27689;48.390;10.856;2023-06-24T07:40:53;97063.19;;;20.27;64.49
42001;BME280;27689;48.390;10.856;2023-06-24T07:43:37;97052.28;;;20.37;65.88
42001;BME280;27689;48.390;10.856;2023-06-24T07:46:22;97059.34;;;20.45;64.28
42001;BME280;27689;48.390;10.856;2023-06-24T07:49:06;97070.44;;;20.48;63.05
42001;BME280;27689;48.390;10.856;2023-06-24T07:51:50;97066.16;;;20.47;63.59
42001;BME280;27689;48.390;10.856;2023-06-24T07:54:34;97070.81;;;20.45;63.17
42001;BME280;27689;48.390;10.856;2023-06-24T07:57:19;97068.53;;;20.42;62.15
42001;BME280;27689;48.390;10.856;2023-06-24T08:00:06;97062.00;;;20.30;62.88
42001;BME280;27689;48.390;10.856;2023-06-24T08:02:53;97069.25;;;20.36;61.71
42001;BME280;27689;48.390;10.856;2023-06-24T08:05:39;97067.50;;;20.43;63.20
42001;BME280;27689;48.390;10.856;2023-06-24T08:08:22;97065.09;;;20.48;61.55
42001;BME280;27689;48.390;10.856;2023-06-24T08:11:06;97061.09;;;20.37;62.59
42001;BME280;27689;48.390;10.856;2023-06-24T08:13:50;97066.03;;;20.40;63.07
42001;BME280;27689;48.390;10.856;2023-06-24T08:16:34;97056.84;;;20.58;63.28
42001;BME280;27689;48.390;10.856;2023-06-24T08:19:18;97051.03;;;20.69;61.71
42001;BME280;27689;48.390;10.856;2023-06-24T08:22:03;97057.34;;;20.83;61.41
42001;BME280;27689;48.390;10.856;2023-06-24T08:24:48;97054.94;;;21.09;61.74
42001;BME280;27689;48.390;10.856;2023-06-24T08:27:32;97042.94;;;21.34;60.19
42001;BME280;27689;48.390;10.856;2023-06-24T08:30:16;97051.75;;;21.56;57.82
42001;BME280;27689;48.390;10.856;2023-06-24T08:33:00;97047.72;;;21.67;59.08
42001;BME280;27689;48.390;10.856;2023-06-24T08:35:44;97048.13;;;21.92;57.24
42001;BME280;27689;48.390;10.856;2023-06-24T08:38:28;97050.91;;;22.05;57.65
42001;BME280;27689;48.390;10.856;2023-06-24T08:41:12;97048.19;;;22.33;59.80
42001;BME280;27689;48.390;10.856;2023-06-24T08:43:56;97048.94;;;22.61;55.40
42001;BME280;27689;48.390;10.856;2023-06-24T08:46:40;97053.81;;;22.51;55.64
42001;BME280;27689;48.390;10.856;2023-06-24T08:49:28;97052.53;;;22.81;56.17
42001;BME280;27689;48.390;10.856;2023-06-24T08:52:15;97050.72;;;23.02;55.63
42001;BME280;27689;48.390;10.856;2023-06-24T08:55:00;97051.19;;;23.32;52.44
42001;BME280;27689;48.390;10.856;2023-06-24T08:57:45;97046.94;;;23.57;53.94
42001;BME280;27689;48.390;10.856;2023-06-24T09:00:29;97046.94;;;23.83;54.82
42001;BME280;27689;48.390;10.856;2023-06-24T09:03:14;97036.03;;;23.78;54.51
42001;BME280;27689;48.390;10.856;2023-06-24T09:05:58;97046.47;;;24.06;53.51
42001;BME280;27689;48.390;10.856;2023-06-24T09:08:54;97043.44;;;24.03;50.34
42001;BME280;27689;48.390;10.856;2023-06-24T09:11:39;97040.75;;;23.89;53.13
42001;BME280;27689;48.390;10.856;2023-06-24T09:14:27;97043.22;;;23.98;52.58
42001;BME280;27689;48.390;10.856;2023-06-24T09:17:13;97046.72;;;23.91;50.59
42001;BME280;27689;48.390;10.856;2023-06-24T09:20:04;97044.25;;;23.90;51.79
42001;BME280;27689;48.390;10.856;2023-06-24T09:22:49;97039.72;;;23.90;51.51
42001;BME280;27689;48.390;10.856;2023-06-24T09:25:33;97034.19;;;23.66;51.11
42001;BME280;27689;48.390;10.856;2023-06-24T09:28:18;97038.50;;;23.53;50.38
42001;BME280;27689;48.390;10.856;2023-06-24T09:31:09;97029.81;;;23.38;50.87
42001;BME280;27689;48.390;10.856;2023-06-24T09:33:57;97036.53;;;23.01;51.95
42001;BME280;27689;48.390;10.856;2023-06-24T09:36:43;97038.34;;;22.88;52.24
42001;BME280;27689;48.390;10.856;2023-06-24T09:39:30;97028.00;;;22.65;53.42
42001;BME280;27689;48.390;10.856;2023-06-24T09:42:20;97031.88;;;22.62;55.41
42001;BME280;27689;48.390;10.856;2023-06-24T09:45:05;97030.06;;;22.69;55.89
42001;BME280;27689;48.390;10.856;2023-06-24T09:47:50;97033.34;;;22.71;55.18
42001;BME280;27689;48.390;10.856;2023-06-24T09:50:34;97032.59;;;22.77;54.40
42001;BME280;27689;48.390;10.856;2023-06-24T09:53:18;97020.59;;;22.67;54.28
42001;BME280;27689;48.390;10.856;2023-06-24T09:56:07;97018.63;;;22.82;55.45
42001;BME280;27689;48.390;10.856;2023-06-24T09:58:51;97007.78;;;23.10;54.71
42001;BME280;27689;48.390;10.856;2023-06-24T10:01:40;97008.22;;;23.46;53.06
42001;BME280;27689;48.390;10.856;2023-06-24T10:04:26;97018.13;;;23.79;52.10
42001;BME280;27689;48.390;10.856;2023-06-24T10:07:11;97006.16;;;23.95;50.48
42001;BME280;27689;48.390;10.856;2023-06-24T10:09:56;97001.16;;;24.05;50.55
42001;BME280;27689;48.390;10.856;2023-06-24T10:12:39;96999.28;;;24.32;51.85
42001;BME280;27689;48.390;10.856;2023-06-24T10:15:23;96989.69;;;24.62;51.17
42001;BME280;27689;48.390;10.856;2023-06-24T10:21:20;96990.41;;;24.38;47.20
42001;BME280;27689;48.390;10.856;2023-06-24T10:24:05;96990.09;;;24.01;48.37
42001;BME280;27689;48.390;10.856;2023-06-24T10:26:49;96981.22;;;23.94;49.85
42001;BME280;27689;48.390;10.856;2023-06-24T10:29:37;96986.97;;;24.04;49.60
42001;BME280;27689;48.390;10.856;2023-06-24T10:32:23;96981.19;;;24.07;50.30
42001;BME280;27689;48.390;10.856;2023-06-24T10:35:07;96980.84;;;24.55;50.88
42001;BME280;27689;48.390;10.856;2023-06-24T10:38:10;96972.59;;;24.94;48.94
42001;BME280;27689;48.390;10.856;2023-06-24T10:40:54;96974.16;;;25.09;45.44
42001;BME280;27689;48.390;10.856;2023-06-24T10:43:38;96965.56;;;25.00;46.45
42001;BME280;27689;48.390;10.856;2023-06-24T10:46:26;96976.25;;;25.07;45.53
42001;BME280;27689;48.390;10.856;2023-06-24T10:49:10;96969.31;;;25.24;43.07
42001;BME280;27689;48.390;10.856;2023-06-24T10:51:54;96968.78;;;25.09;42.76
42001;BME280;27689;48.390;10.856;2023-06-24T10:54:39;96961.00;;;25.07;45.86
42001;BME280;27689;48.390;10.856;2023-06-24T10:57:25;96959.38;;;25.00;42.12
42001;BME280;27689;48.390;10.856;2023-06-24T11:00:11;96956.38;;;24.83;44.47
42001;BME280;27689;48.390;10.856;2023-06-24T11:02:56;96952.69;;;24.77;43.14
42001;BME280;27689;48.390;10.856;2023-06-24T11:05:41;96950.53;;;24.54;42.00
42001;BME280;27689;48.390;10.856;2023-06-24T11:08:26;96938.41;;;24.52;41.75
42001;BME280;27689;48.390;10.856;2023-06-24T11:11:18;96946.28;;;24.78;40.70
42001;BME280;27689;48.390;10.856;2023-06-24T11:14:02;96935.31;;;24.86;41.41
42001;BME280;27689;48.390;10.856;2023-06-24T11:16:47;96939.44;;;24.89;40.16
42001;BME280;27689;48.390;10.856;2023-06-24T11:19:30;96934.41;;;25.06;41.31
42001;BME280;27689;48.390;10.856;2023-06-24T11:22:19;96928.38;;;25.35;40.82
42001;BME280;27689;48.390;10.856;2023-06-24T11:25:04;96920.56;;;25.77;40.69
42001;BME280;27689;48.390;10.856;2023-06-24T11:27:52;96916.97;;;25.83;40.55
42001;BME280;27689;48.390;10.856;2023-06-24T11:30:37;96907.50;;;26.17;42.17
42001;BME280;27689;48.390;10.856;2023-06-24T11:33:27;96911.50;;;26.74;43.25
42001;BME280;27689;48.390;10.856;2023-06-24T11:36:11;96907.88;;;26.98;39.86
42001;BME280;27689;48.390;10.856;2023-06-24T11:38:55;96906.81;;;26.99;39.45
42001;BME280;27689;48.390;10.856;2023-06-24T11:41:39;96906.06;;;26.92;38.57
42001;BME280;27689;48.390;10.856;2023-06-24T11:44:24;96903.75;;;26.54;39.63
42001;BME280;27689;48.390;10.856;2023-06-24T11:47:08;96901.03;;;25.88;41.36
42001;BME280;27689;48.390;10.856;2023-06-24T11:49:55;96896.63;;;25.75;42.16
42001;BME280;27689;48.390;10.856;2023-06-24T11:55:25;96890.94;;;26.20;42.63
42001;BME280;27689;48.390;10.856;2023-06-24T11:58:09;96883.44;;;26.70;41.96
42001;BME280;27689;48.390;10.856;2023-06-24T12:00:56;96872.91;;;26.98;39.33
42001;BME280;27689;48.390;10.856;2023-06-24T12:03:41;96878.88;;;27.47;41.34
42001;BME280;27689;48.390;10.856;2023-06-24T12:06:24;96881.25;;;27.67;36.26
42001;BME280;27689;48.390;10.856;2023-06-24T12:09:09;96874.78;;;27.80;35.98
42001;BME280;27689;48.390;10.856;2023-06-24T12:11:53;96868.31;;;28.04;35.98
42001;BME280;27689;48.390;10.856;2023-06-24T12:14:37;96873.19;;;28.07;34.12
42001;BME280;27689;48.390;10.856;2023-06-24T12:17:21;96865.81;;;28.14;35.27
42001;BME280;27689;48.390;10.856;2023-06-24T12:20:05;96862.81;;;28.39;37.06
42001;BME280;27689;48.390;10.856;2023-06-24T12:22:49;96851.69;;;28.64;35.65
42001;BME280;27689;48.390;10.856;2023-06-24T12:25:34;96853.03;;;28.66;34.38
42001;BME280;27689;48.390;10.856;2023-06-24T12:28:18;96850.41;;;28.83;34.88
42001;BME280;27689;48.390;10.856;2023-06-24T12:31:02;96854.59;;;28.91;33.63
42001;BME280;27689;48.390;10.856;2023-06-24T12:33:47;96845.88;;;28.72;34.68
42001;BME280;27689;48.390;10.856;2023-06-24T12:36:31;96841.06;;;28.29;35.04
42001;BME280;27689;48.390;10.856;2023-06-24T12:39:15;96843.63;;;27.84;35.28
42001;BME280;27689;48.390;10.856;2023-06-24T12:41:59;96837.94;;;27.45;34.86
42001;BME280;27689;48.390;10.856;2023-06-24T12:44:43;96835.94;;;27.17;34.89
42001;BME280;27689;48.390;10.856;2023-06-24T12:47:26;96831.34;;;26.83;35.86
42001;BME280;27689;48.390;10.856;2023-06-24T12:50:10;96830.09;;;27.09;35.53
42001;BME280;27689;48.390;10.856;2023-06-24T12:52:54;96835.38;;;27.27;34.70
42001;BME280;27689;48.390;10.856;2023-06-24T12:55:38;96827.06;;;27.40;35.20
42001;BME280;27689;48.390;10.856;2023-06-24T12:58:23;96829.78;;;27.92;34.93
42001;BME280;27689;48.390;10.856;2023-06-24T13:01:09;96818.03;;;28.38;32.60
42001;BME280;27689;48.390;10.856;2023-06-24T13:03:52;96818.50;;;28.35;29.45
42001;BME280;27689;48.390;10.856;2023-06-24T13:06:36;96819.88;;;28.49;30.51
42001;BME280;27689;48.390;10.856;2023-06-24T13:09:20;96824.19;;;28.67;31.48
42001;BME280;27689;48.390;10.856;2023-06-24T13:12:05;96820.81;;;28.88;29.35
42001;BME280;27689;48.390;10.856;2023-06-24T13:14:49;96813.53;;;28.89;30.61
42001;BME280;27689;48.390;10.856;2023-06-24T13:17:33;96814.47;;;29.33;31.76
42001;BME280;27689;48.390;10.856;2023-06-24T13:20:17;96809.56;;;29.68;32.73
42001;BME280;27689;48.390;10.856;2023-06-24T13:23:01;96811.53;;;29.95;30.85
42001;BME280;27689;48.390;10.856;2023-06-24T13:25:45;96813.41;;;30.16;30.57
42001;BME280;27689;48.390;10.856;2023-06-24T13:28:29;96802.41;;;30.49;31.33
42001;BME280;27689;48.390;10.856;2023-06-24T13:31:13;96810.06;;;30.31;31.09
42001;BME280;27689;48.390;10.856;2023-06-24T13:33:57;96813.41;;;29.72;30.95
42001;BME280;27689;48.390;10.856;2023-06-24T13:36:40;96802.22;;;29.42;32.75
42001;BME280;27689;48.390;10.856;2023-06-24T13:39:25;96807.81;;;29.19;30.82
42001;BME280;27689;48.390;10.856;2023-06-24T13:42:09;96803.47;;;29.18;32.64
42001;BME280;27689;48.390;10.856;2023-06-24T13:44:53;96801.44;;;29.08;31.60
42001;BME280;27689;48.390;10.856;2023-06-24T13:47:37;96806.78;;;29.25;30.53
42001;BME280;27689;48.390;10.856;2023-06-24T13:50:21;96796.75;;;29.20;30.36
42001;BME280;27689;48.390;10.856;2023-06-24T13:53:05;96791.66;;;29.24;30.83
42001;BME280;27689;48.390;10.856;2023-06-24T13:55:49;96792.06;;;29.32;31.11
42001;BME280;27689;48.390;10.856;2023-06-24T13:58:33;96787.69;;;29.65;31.96
42001;BME280;27689;48.390;10.856;2023-06-24T14:01:17;96782.75;;;29.83;29.26
42001;BME280;27689;48.390;10.856;2023-06-24T14:04:01;96791.25;;;29.70;29.46
42001;BME280;27689;48.390;10.856;2023-06-24T14:06:46;96791.81;;;29.34;30.00
42001;BME280;27689;48.390;10.856;2023-06-24T14:09:30;96788.56;;;29.32;30.16
42001;BME280;27689;48.390;10.856;2023-06-24T14:12:14;96778.72;;;29.26;32.27
42001;BME280;27689;48.390;10.856;2023-06-24T14:14:58;96776.59;;;29.06;32.02
42001;BME280;27689;48.390;10.856;2023-06-24T14:17:42;96780.03;;;28.85;32.86
42001;BME280;27689;48.390;10.856;2023-06-24T14:20:26;96778.66;;;28.37;30.76
42001;BME280;27689;48.390;10.856;2023-06-24T14:23:10;96779.72;;;28.36;31.54
42001;BME280;27689;48.390;10.856;2023-06-24T14:25:55;96774.09;;;28.71;33.25
42001;BME280;27689;48.390;10.856;2023-06-24T14:28:40;96767.31;;;28.68;32.79
42001;BME280;27689;48.390;10.856;2023-06-24T14:31:24;96771.81;;;28.46;32.87
42001;BME280;27689;48.390;10.856;2023-06-24T14:34:08;96770.91;;;28.12;33.62
42001;BME280;27689;48.390;10.856;2023-06-24T14:36:52;96768.03;;;28.02;33.76
42001;BME280;27689;48.390;10.856;2023-06-24T14:39:36;96773.50;;;27.79;34.81
42001;BME280;27689;48.390;10.856;2023-06-24T14:42:21;96768.03;;;27.50;34.91